Thursday, September 20, 2018, 12:38 PM GMT
Back to Local

CYOW, Ottawa Int'L. Ont.

Location: , , Canada Lat: 45.317
Local Time: 12:38 PM GMT (12:38 GMT) Lon: -75.667
Time Zone: GMT Elev: 380 ft

Show me the last for .
Show Coded

Time T Td Feel RH Dir Speed Gust Alt SLP Vis Weather Sky Remarks
2018-09-20 12:00 52 50 - 93 40° 7 - 30.24 30.25 15 -RA FEW035 OVC078 None
2018-09-20 11:21 52 50 - 93 100° 7 - 30.21 30.22 15 -RA SCT030 BKN110 None
2018-09-20 11:00 52 50 - 93 70° 7 - 30.22 30.23 15 SCT030 BKN110 None
2018-09-20 10:00 52 50 - 93 70° 5 - 30.21 30.22 15 SCT027 OVC036 None
2018-09-20 09:00 52 50 - 93 10° 6 - 30.19 30.20 15 BKN030 None
2018-09-20 08:00 48 48 - 100 340° 2 - 30.18 30.19 15 BKN023 Pressure rising rapidly
2018-09-20 07:44 48 46 45 93 40° 7 - 30.15 30.16 15 BKN021 None
2018-09-20 07:00 48 46 46 93 30° 5 - 30.16 30.17 15 CLR None
2018-09-20 06:00 48 46 45 93 40° 8 - 30.16 30.17 15 CLR None
2018-09-20 05:00 50 46 49 87 60° 3 - 30.15 30.16 15 CLR None
2018-09-20 04:00 50 46 47 87 40° 7 - 30.15 30.16 15 CLR None
2018-09-20 03:00 52 48 - 87 50° 7 - 30.14 30.15 15 FEW040 None
2018-09-20 02:00 54 48 - 81 10° 6 - 30.14 30.15 15 FEW035 None
2018-09-20 01:00 59 48 - 67 10° 6 - 30.14 30.14 15 BKN040 None
2018-09-20 00:00 61 52 - 72 360° 8 - 30.13 30.14 15 BKN034 None
2018-09-19 23:00 59 52 - 77 Variable 2 - 30.10 30.11 15 FEW030 BKN038 None
2018-09-19 22:00 63 52 - 67 10° 5 - 30.09 30.10 15 BKN033 None
2018-09-19 21:00 63 52 - 67 260° 5 - 30.09 30.10 15 FEW030 BKN042 None
2018-09-19 20:00 63 52 - 67 Variable 2 - 30.10 30.11 15 FEW025 BKN039 None
2018-09-19 19:00 61 54 - 77 340° 3 - 30.07 30.08 15 FEW020 OVC035 None
2018-09-19 18:00 61 54 - 77 Variable 2 - 30.07 30.08 15 BKN035 OVC060 None
2018-09-19 17:00 59 54 - 82 50° 5 - 30.07 30.08 15 BKN015 OVC036 None
2018-09-19 16:00 59 52 - 77 30° 6 - 30.07 30.08 15 OVC018 None
2018-09-19 15:00 57 50 - 76 330° 3 - 30.07 30.08 15 OVC016 None
2018-09-19 14:00 57 50 - 76 320° 8 - 30.06 30.07 15 BKN015 OVC020 None
2018-09-19 13:00 55 50 - 82 340° 7 - 30.04 30.05 15 OVC025 None

Support USWX by starting your Amazon purchase here.